Time;durP1;ratioP1;P1;durP2;ratioP2;P2;SDS_P1;SDS_P2;PMS_P1;PMS_P2;Temp;Humidity;BMP_temperature;BMP_pressure;BME280_temperature;BME280_humidity;BME280_pressure;Samples;Min_cycle;Max_cycle;Signal;HPM_P1;HPM_P2
2022/01/14 00:01:40;;;;;;;23.13;9.90;;;;;;;4.63;60.88;101878.78;5384414;32;36430;-78
2022/01/14 00:04:42;;;;;;;23.23;9.63;;;;;;;4.80;59.55;101866.78;5413991;32;35144;-78
2022/01/14 00:07:44;;;;;;;22.73;10.03;;;;;;;4.66;60.68;101873.59;5418893;32;34557;-67
2022/01/14 00:10:50;;;;;;;20.90;10.00;;;;;;;4.72;60.62;101862.38;5412760;32;44467;-78
2022/01/14 00:14:08;;;;;;;20.57;9.67;;;;;;;5.84;56.85;101850.87;5404472;32;34863;-68
2022/01/14 00:17:13;;;;;;;24.07;11.27;;;;;;;4.67;60.45;101862.31;5411568;32;34506;-77
2022/01/14 00:20:15;;;;;;;22.60;10.17;;;;;;;4.37;61.60;101851.63;5414848;32;33850;-68
2022/01/14 00:23:25;;;;;;;24.07;10.90;;;;;;;4.25;61.69;101842.84;5419191;32;44377;-76
2022/01/14 00:33:09;;;;;;;20.03;9.40;;;;;;;4.62;61.51;101837.97;5415361;32;34851;-67
2022/01/14 00:36:11;;;;;;;19.80;9.27;;;;;;;4.50;61.66;101838.72;5395703;32;34468;-78
2022/01/14 00:39:14;;;;;;;23.87;10.33;;;;;;;4.65;60.64;101832.81;5407189;32;34866;-77
2022/01/14 00:42:16;;;;;;;25.37;10.63;;;;;;;4.42;61.78;101829.13;5396682;32;42636;-78
2022/01/14 00:45:19;;;;;;;20.37;9.70;;;;;;;4.47;61.28;101835.25;5404083;32;34956;-79
2022/01/14 00:48:21;;;;;;;20.60;9.77;;;;;;;4.50;61.60;101833.53;5413345;32;34798;-77
2022/01/14 00:51:23;;;;;;;22.90;9.00;;;;;;;5.15;58.88;101812.31;5417937;32;34177;-66
2022/01/14 00:54:26;;;;;;;19.97;10.27;;;;;;;4.99;58.64;101826.09;5393712;32;35297;-69
2022/01/14 00:59:14;;;;;;;20.07;9.27;;;;;;;4.83;59.72;101816.41;5381421;32;36526;-69
2022/01/14 01:00:50;;;;;;;23.10;9.77;;;;;;;3.81;63.37;101826.78;5403716;32;48163;-79
2022/01/14 01:03:52;;;;;;;21.83;10.57;;;;;;;3.50;65.05;101816.00;5414000;32;34068;-68
2022/01/14 01:06:55;;;;;;;25.37;10.73;;;;;;;3.28;65.29;101810.47;5416868;32;34412;-78
2022/01/14 01:09:57;;;;;;;22.63;10.23;;;;;;;3.26;65.83;101818.25;5395085;32;33067;-68
2022/01/14 01:13:08;;;;;;;21.53;9.83;;;;;;;3.59;64.19;101802.22;5417136;32;36152;-68
2022/01/14 01:16:10;;;;;;;22.13;9.90;;;;;;;3.39;65.02;101803.69;5417897;32;35001;-68
2022/01/14 01:19:12;;;;;;;21.17;9.33;;;;;;;3.61;64.31;101802.25;5397848;32;34070;-67
2022/01/14 01:22:14;;;;;;;23.10;10.23;;;;;;;4.15;62.60;101811.50;5418587;32;34144;-67
2022/01/14 01:25:20;;;;;;;21.47;10.10;;;;;;;3.53;64.63;101803.00;5412854;32;44733;-77
2022/01/14 01:28:23;;;;;;;22.83;10.00;;;;;;;3.88;63.97;101814.72;5417022;32;34551;-67
2022/01/14 01:31:35;;;;;;;22.07;10.53;;;;;;;3.72;64.08;101805.84;5414668;32;34735;-68
2022/01/14 01:34:37;;;;;;;22.77;10.20;;;;;;;3.93;63.71;101800.00;5414484;32;34516;-68
2022/01/14 01:37:39;;;;;;;21.20;10.03;;;;;;;3.91;63.30;101799.13;5404841;32;34843;-68
2022/01/14 01:40:43;;;;;;;21.73;10.37;;;;;;;4.19;62.47;101795.09;5413473;32;34469;-79
2022/01/14 01:43:50;;;;;;;;;;;;;;;3.96;63.38;101790.50;5414243;32;35221;-68
2022/01/14 01:46:55;;;;;;;23.00;10.33;;;;;;;4.12;62.60;101783.72;5400490;32;44700;-79
2022/01/14 01:49:57;;;;;;;22.17;10.57;;;;;;;3.44;64.62;101784.72;5402428;32;34046;-68
2022/01/14 01:52:59;;;;;;;24.03;11.30;;;;;;;4.83;60.34;101765.22;5399248;32;35381;-78
2022/01/14 01:56:02;;;;;;;23.50;9.73;;;;;;;4.26;61.76;101769.13;5377278;32;36884;-79
2022/01/14 01:59:05;;;;;;;22.77;10.33;;;;;;;4.73;60.65;101778.16;5396751;32;34138;-78
2022/01/14 02:02:07;;;;;;;21.03;9.83;;;;;;;4.27;62.23;101776.06;5381231;32;34821;-67
2022/01/14 02:05:09;;;;;;;24.60;10.70;;;;;;;3.71;64.40;101767.69;5417528;32;35160;-80
2022/01/14 02:08:11;;;;;;;22.63;10.23;;;;;;;3.41;65.14;101760.41;5393786;32;34227;-78
2022/01/14 02:11:14;;;;;;;22.73;10.17;;;;;;;3.69;64.92;101746.88;5412021;32;35063;-78
2022/01/14 02:24:33;;;;;;;22.90;10.37;;;;;;;3.82;64.32;101734.87;5413010;32;42904;-77
2022/01/14 02:27:36;;;;;;;23.67;10.50;;;;;;;3.64;66.10;101729.47;5411310;32;33945;-66
2022/01/14 02:30:40;;;;;;;23.87;9.75;;;;;;;3.79;64.38;101725.31;5391167;32;34605;-77
2022/01/14 02:33:43;;;;;;;23.30;9.93;;;;;;;3.42;66.67;101728.37;5398075;32;34794;-66
2022/01/14 02:36:47;;;;;;;23.73;9.80;;;;;;;3.31;67.20;101719.59;5417202;32;34982;-66
2022/01/14 02:39:49;;;;;;;20.48;10.05;;;;;;;3.60;65.38;101704.28;5412208;32;45067;-77
2022/01/14 02:42:51;;;;;;;21.80;10.17;;;;;;;3.71;65.85;101711.34;5402351;32;35167;-78
2022/01/14 02:45:56;;;;;;;22.80;10.33;;;;;;;4.07;64.47;101716.03;5414164;32;35383;-67
2022/01/14 02:48:58;;;;;;;22.77;10.17;;;;;;;4.20;63.82;101695.34;5412641;32;36458;-67
2022/01/14 02:52:03;;;;;;;23.70;10.87;;;;;;;4.20;62.99;101701.41;5417375;32;34626;-67
2022/01/14 02:55:15;;;;;;;23.53;11.07;;;;;;;4.23;63.34;101701.41;5381980;32;35173;-77
2022/01/14 02:58:17;;;;;;;23.03;10.23;;;;;;;3.43;66.76;101706.72;5402256;32;44799;-77
2022/01/14 03:01:25;;;;;;;27.73;11.37;;;;;;;3.87;65.17;101703.72;5407852;32;36051;-67
2022/01/14 03:04:28;;;;;;;20.43;9.20;;;;;;;3.22;67.76;101705.63;5413516;32;35402;-67
2022/01/14 03:07:30;;;;;;;25.67;10.67;;;;;;;3.66;66.22;101696.56;5386496;32;34131;-67
2022/01/14 03:10:32;;;;;;;26.03;10.50;;;;;;;3.51;66.67;101682.56;5414473;32;34939;-78
2022/01/14 03:13:35;;;;;;;22.27;10.37;;;;;;;3.83;65.56;101669.00;5420128;32;34092;-68
2022/01/14 03:16:40;;;;;;;24.17;10.63;;;;;;;3.58;66.17;101667.03;5400474;32;34347;-78
2022/01/14 03:19:42;;;;;;;21.87;10.23;;;;;;;4.04;64.50;101661.38;5412389;32;34186;-67
2022/01/14 03:22:52;;;;;;;23.33;10.13;;;;;;;4.17;64.83;101659.72;5415635;32;34489;-67
2022/01/14 03:25:56;;;;;;;22.13;9.30;;;;;;;3.67;66.21;101657.59;5390186;32;44686;-78
2022/01/14 03:28:58;;;;;;;;;;;;;;;3.57;66.50;101655.75;5415471;32;33570;-67
2022/01/14 03:32:03;;;;;;;20.93;9.23;;;;;;;4.23;63.71;101656.31;5414768;32;34749;-77
2022/01/14 03:35:06;;;;;;;26.23;11.03;;;;;;;3.51;66.99;101659.16;5419214;32;34090;-78
2022/01/14 03:38:08;;;;;;;25.15;11.32;;;;;;;4.10;64.57;101657.94;5400170;32;34656;-67
2022/01/14 03:41:10;;;;;;;22.63;9.40;;;;;;;3.13;68.40;101657.88;5399726;32;36113;-78
2022/01/14 03:44:13;;;;;;;22.07;10.37;;;;;;;3.68;66.60;101651.53;5414683;32;34770;-67
2022/01/14 03:47:15;;;;;;;24.37;10.67;;;;;;;3.94;66.04;101640.50;5415523;32;34781;-67
2022/01/14 03:50:17;;;;;;;25.43;10.30;;;;;;;3.41;67.80;101641.72;5419174;32;44780;-67
2022/01/14 03:53:20;;;;;;;23.43;10.30;;;;;;;3.78;66.19;101634.28;5414466;32;35488;-78
2022/01/14 03:56:23;;;;;;;22.47;10.93;;;;;;;3.38;68.22;101643.44;5390054;32;35033;-79
2022/01/14 03:59:25;;;;;;;20.77;9.87;;;;;;;3.37;68.09;101641.69;5401473;32;33958;-69
2022/01/14 04:02:27;;;;;;;21.67;9.57;;;;;;;3.10;69.46;101643.13;5414734;32;34436;-66
2022/01/14 04:05:29;;;;;;;26.47;11.00;;;;;;;3.70;67.33;101643.75;5415788;32;34705;-66
2022/01/14 04:08:32;;;;;;;24.30;10.20;;;;;;;3.51;67.83;101633.16;5414868;32;34470;-66
2022/01/14 04:11:34;;;;;;;26.10;9.97;;;;;;;3.28;69.56;101644.16;5414846;32;35402;-77
2022/01/14 04:17:39;;;;;;;24.40;8.83;;;;;;;3.39;68.40;101596.66;5405127;32;34171;-67
2022/01/14 04:20:43;;;;;;;21.50;10.10;;;;;;;3.62;69.32;101607.28;5400658;32;34470;-78
2022/01/14 04:23:45;;;;;;;;;;;;;;;3.84;68.47;101594.44;5404819;32;34123;-78
2022/01/14 04:26:47;;;;;;;19.10;8.03;;;;;;;4.27;66.92;101593.88;5399988;32;44317;-78
2022/01/14 04:29:49;;;;;;;15.73;6.93;;;;;;;4.37;66.49;101593.91;5395317;32;33840;-67
2022/01/14 04:32:51;;;;;;;18.03;8.33;;;;;;;4.27;66.50;101599.09;5409311;32;34278;-78
2022/01/14 04:35:54;;;;;;;19.03;8.03;;;;;;;4.62;65.86;101587.97;5409673;32;34438;-67
2022/01/14 04:38:56;;;;;;;15.88;6.93;;;;;;;4.04;67.66;101590.25;5418739;32;34114;-67
2022/01/14 04:42:01;;;;;;;20.17;8.20;;;;;;;4.86;65.46;101582.00;5413049;32;34236;-77
2022/01/14 04:45:04;;;;;;;16.90;8.00;;;;;;;4.12;67.65;101572.94;5415436;32;34557;-67
2022/01/14 04:48:08;;;;;;;17.95;7.25;;;;;;;4.84;65.47;101562.91;5401603;32;35033;-78
2022/01/14 04:51:10;;;;;;;16.67;6.70;;;;;;;5.32;63.34;101546.47;5413443;32;34180;-66
2022/01/14 04:54:13;;;;;;;16.83;7.33;;;;;;;5.12;64.50;101545.59;5418091;32;34290;-77
2022/01/14 04:57:16;;;;;;;17.00;7.70;;;;;;;5.18;63.46;101552.56;5379267;32;34539;-78
2022/01/14 05:00:23;;;;;;;19.15;8.05;;;;;;;4.61;65.87;101555.00;5399649;32;44442;-67
2022/01/14 05:03:25;;;;;;;17.97;8.20;;;;;;;5.19;63.62;101549.94;5414009;32;34572;-67
2022/01/14 05:06:29;;;;;;;19.03;8.60;;;;;;;5.07;63.33;101542.97;5412607;32;33845;-78
2022/01/14 05:09:34;;;;;;;18.10;8.18;;;;;;;4.75;64.42;101550.69;5417416;32;34747;-77
2022/01/14 05:12:40;;;;;;;20.57;7.90;;;;;;;4.59;65.70;101549.78;5412566;32;34589;-77
2022/01/14 05:15:42;;;;;;;18.47;8.23;;;;;;;4.36;66.47;101551.41;5419766;32;35088;-67
2022/01/14 05:18:44;;;;;;;20.83;9.20;;;;;;;4.36;65.89;101517.56;5413499;32;35348;-66
2022/01/14 05:21:47;;;;;;;21.30;8.40;;;;;;;4.70;65.77;101538.53;5417723;32;44354;-67
2022/01/14 05:24:49;;;;;;;22.27;8.93;;;;;;;4.89;64.75;101549.03;5415001;32;34880;-67
2022/01/14 05:27:51;;;;;;;17.40;9.03;;;;;;;5.00;64.11;101541.22;5400475;32;34768;-77
2022/01/14 05:30:55;;;;;;;19.40;8.50;;;;;;;5.54;62.30;101538.66;5399183;32;35068;-79
2022/01/14 05:33:57;;;;;;;21.53;9.37;;;;;;;5.70;61.21;101543.88;5400752;32;34891;-79
2022/01/14 05:37:01;;;;;;;18.97;8.70;;;;;;;4.74;64.65;101554.16;5406538;32;34679;-78
2022/01/14 05:40:05;;;;;;;19.58;7.43;;;;;;;4.69;65.13;101568.91;5405587;32;33951;-67
2022/01/14 05:43:07;;;;;;;18.07;8.47;;;;;;;5.17;63.65;101556.91;5410436;32;34443;-67
2022/01/14 05:46:09;;;;;;;18.27;8.20;;;;;;;5.50;61.59;101547.38;5411460;32;34078;-78
2022/01/14 05:49:12;;;;;;;20.93;8.50;;;;;;;5.39;61.90;101543.00;5393950;32;34675;-79
2022/01/14 05:52:14;;;;;;;18.90;8.00;;;;;;;4.60;64.81;101551.53;5414627;32;34249;-78
2022/01/14 05:55:17;;;;;;;19.97;8.50;;;;;;;4.80;64.47;101562.00;5396765;32;44658;-78
2022/01/14 05:58:19;;;;;;;18.95;8.27;;;;;;;5.45;62.58;101563.00;5390987;32;34920;-68
2022/01/14 06:01:22;;;;;;;20.33;8.13;;;;;;;5.66;61.62;101554.31;5385337;32;34227;-68
2022/01/14 06:04:24;;;;;;;23.13;9.07;;;;;;;4.99;63.16;101543.81;5416040;32;34564;-68
2022/01/14 06:07:26;;;;;;;19.73;8.43;;;;;;;4.73;63.79;101557.66;5414653;32;34612;-78
2022/01/14 06:10:28;;;;;;;19.53;8.80;;;;;;;5.30;62.09;101536.94;5415406;32;34162;-73
2022/01/14 06:13:30;;;;;;;20.83;8.87;;;;;;;4.35;66.10;101562.69;5415572;32;33987;-77
2022/01/14 06:16:32;;;;;;;18.83;8.80;;;;;;;4.41;65.77;101554.03;5404036;32;35021;-77
2022/01/14 06:19:34;;;;;;;20.23;9.60;;;;;;;3.84;67.18;101550.22;5417619;32;34277;-67
2022/01/14 06:22:37;;;;;;;19.33;9.90;;;;;;;3.70;67.68;101545.81;5398783;32;34545;-67
2022/01/14 06:25:40;;;;;;;20.77;8.93;;;;;;;4.10;66.90;101543.47;5400405;32;34023;-79
2022/01/14 06:28:43;;;;;;;27.77;10.70;;;;;;;4.88;64.11;101531.63;5414116;32;34961;-67
2022/01/14 06:31:46;;;;;;;21.45;9.20;;;;;;;4.72;63.55;101522.06;5412007;32;33793;-68
2022/01/14 06:34:50;;;;;;;20.00;8.47;;;;;;;4.44;64.58;101530.62;5377097;32;44202;-72
2022/01/14 06:37:53;;;;;;;19.20;7.87;;;;;;;5.25;62.41;101523.88;5414970;32;34433;-69
2022/01/14 06:40:56;;;;;;;18.05;8.35;;;;;;;5.41;61.28;101527.38;5404318;32;34147;-68
2022/01/14 06:43:58;;;;;;;19.13;8.67;;;;;;;4.48;64.46;101534.97;5413621;32;36297;-68
2022/01/14 06:47:00;;;;;;;21.80;9.53;;;;;;;4.11;66.80;101544.31;5413609;32;34099;-73
2022/01/14 06:50:03;;;;;;;18.60;8.50;;;;;;;3.91;66.87;101536.41;5395225;32;34306;-66
2022/01/14 06:53:05;;;;;;;20.27;8.50;;;;;;;4.44;65.02;101534.09;5409532;32;34600;-74
2022/01/14 06:56:10;;;;;;;20.47;8.77;;;;;;;4.59;64.38;101525.47;5386405;32;34143;-67
2022/01/14 06:59:12;;;;;;;23.30;10.40;;;;;;;4.58;64.36;101521.16;5393286;32;35327;-66
2022/01/14 07:02:15;;;;;;;17.17;8.50;;;;;;;4.69;64.27;101531.56;5406031;32;34697;-75
2022/01/14 07:05:19;;;;;;;19.20;8.60;;;;;;;4.51;63.91;101529.81;5406487;32;46502;-66
2022/01/14 07:08:23;;;;;;;19.73;7.50;;;;;;;4.96;63.25;101522.97;5404946;32;32939;-65
2022/01/14 07:11:30;;;;;;;17.40;7.73;;;;;;;4.29;64.79;101515.81;5382864;32;34914;-66
2022/01/14 07:14:33;;;;;;;19.60;8.37;;;;;;;4.62;63.49;101517.66;5390657;32;33270;-66
2022/01/14 07:17:37;;;;;;;17.73;7.57;;;;;;;4.45;64.55;101519.38;5411123;32;34576;-75
2022/01/14 07:20:40;;;;;;;19.00;8.37;;;;;;;4.56;64.56;101517.66;5414123;32;35157;-74
2022/01/14 07:23:42;;;;;;;18.67;8.03;;;;;;;4.79;63.60;101504.72;5411695;32;34657;-74
2022/01/14 07:26:46;;;;;;;19.90;7.80;;;;;;;5.03;62.34;101509.97;5399588;32;34139;-75
2022/01/14 07:29:48;;;;;;;;;;;;;;;4.57;63.44;101514.16;5403706;32;44538;-69
2022/01/14 07:32:52;;;;;;;17.00;8.30;;;;;;;5.10;61.95;101497.81;5405621;32;35521;-76
2022/01/14 07:35:55;;;;;;;17.10;7.30;;;;;;;4.81;62.62;101498.63;5411471;32;35062;-70
2022/01/14 07:38:57;;;;;;;18.53;7.80;;;;;;;4.88;62.43;101500.38;5413218;32;35342;-74
2022/01/14 07:42:02;;;;;;;17.97;7.73;;;;;;;4.80;63.43;101502.09;5410065;32;34037;-76
2022/01/14 07:45:05;;;;;;;22.23;8.40;;;;;;;4.67;63.45;101505.53;5401293;32;34165;-77
2022/01/14 07:48:07;;;;;;;22.43;8.30;;;;;;;5.11;62.05;101504.75;5414307;32;34225;-64
2022/01/14 07:51:10;;;;;;;18.57;7.33;;;;;;;5.18;61.53;101503.03;5413655;32;33015;-66
2022/01/14 07:54:12;;;;;;;18.70;7.17;;;;;;;4.61;64.12;101510.72;5415883;32;33869;-75
2022/01/14 07:57:15;;;;;;;18.00;7.17;;;;;;;4.77;63.35;101504.72;5365774;32;32906;-74
2022/01/14 08:00:17;;;;;;;15.47;7.60;;;;;;;5.02;62.75;101507.34;5413325;32;46501;-73
2022/01/14 08:03:20;;;;;;;14.67;6.37;;;;;;;4.35;64.49;101502.81;5409115;32;34125;-63
2022/01/14 08:06:24;;;;;;;17.80;7.17;;;;;;;4.86;62.69;101507.31;5390787;32;34107;-74
2022/01/14 08:09:26;;;;;;;15.77;6.77;;;;;;;5.18;62.07;101503.91;5413425;32;33871;-68
2022/01/14 08:12:28;;;;;;;14.07;5.83;;;;;;;5.02;62.07;101507.34;5414794;32;33884;-69
2022/01/14 08:15:31;;;;;;;19.67;8.93;;;;;;;5.33;61.32;101503.03;5408115;32;34131;-75
2022/01/14 08:18:34;;;;;;;15.67;6.67;;;;;;;5.41;61.09;101496.09;5415260;32;34090;-66
2022/01/14 08:21:36;;;;;;;24.40;7.47;;;;;;;5.80;60.13;101497.78;5409447;32;35123;-66
2022/01/14 08:24:38;;;;;;;16.73;7.23;;;;;;;6.01;59.35;101496.91;5395023;32;34103;-67
2022/01/14 08:27:41;;;;;;;18.37;6.97;;;;;;;5.67;60.12;101491.72;5401172;32;34650;-78
2022/01/14 08:30:48;;;;;;;14.77;6.23;;;;;;;5.81;59.43;101483.88;5415294;32;35166;-78
2022/01/14 08:33:50;;;;;;;;;;;;;;;5.70;60.06;101473.44;5402174;32;34304;-71
2022/01/14 08:36:52;;;;;;;13.70;5.57;;;;;;;5.36;59.86;101459.59;5403534;32;34810;-67
2022/01/14 08:39:55;;;;;;;16.87;7.13;;;;;;;6.41;57.52;101465.44;5415522;32;35064;-65
2022/01/14 08:42:57;;;;;;;15.18;6.82;;;;;;;6.72;56.26;101458.28;5403411;32;33019;-69
2022/01/14 08:46:02;;;;;;;18.07;7.67;;;;;;;5.24;60.75;101464.81;5402353;32;33989;-67
2022/01/14 08:49:05;;;;;;;15.30;6.60;;;;;;;6.43;57.58;101461.91;5413901;32;34742;-66
2022/01/14 08:52:09;;;;;;;16.43;6.53;;;;;;;6.73;56.26;101457.41;5388138;32;35172;-71
2022/01/14 08:55:14;;;;;;;15.50;6.70;;;;;;;5.58;59.67;101462.16;5393401;32;33793;-62
2022/01/14 08:58:18;;;;;;;17.00;6.70;;;;;;;6.11;57.01;101448.13;5391206;32;44544;-72
2022/01/14 09:01:20;;;;;;;13.93;5.65;;;;;;;5.83;59.18;101442.12;5403637;32;245562;-70
2022/01/14 09:04:23;;;;;;;16.00;6.03;;;;;;;6.04;57.94;101430.78;5400647;32;35075;-70
2022/01/14 09:07:26;;;;;;;13.90;5.67;;;;;;;6.37;57.43;101417.56;5403954;32;35030;-71
2022/01/14 09:10:28;;;;;;;17.15;6.85;;;;;;;6.31;56.91;101441.13;5413769;32;35650;-66
2022/01/14 09:13:31;;;;;;;12.67;5.10;;;;;;;6.15;57.14;101432.47;5417745;32;34430;-71
2022/01/14 09:16:33;;;;;;;13.93;6.20;;;;;;;6.13;57.35;101426.41;5418668;32;33923;-68
2022/01/14 09:19:36;;;;;;;17.55;6.07;;;;;;;6.09;58.00;101419.44;5376746;32;34790;-70
2022/01/14 09:22:47;;;;;;;17.13;5.63;;;;;;;6.82;55.99;101423.37;5411602;32;35115;-71
2022/01/14 09:25:53;;;;;;;16.17;6.20;;;;;;;6.62;55.96;101401.75;5397431;32;44004;-67
2022/01/14 09:28:57;;;;;;;14.50;5.80;;;;;;;6.58;55.80;101398.31;5399286;32;34718;-70
2022/01/14 09:31:59;;;;;;;13.62;5.35;;;;;;;7.14;54.43;101396.09;5390885;32;34094;-68
2022/01/14 09:35:03;;;;;;;14.47;6.03;;;;;;;6.79;55.00;101397.28;5417540;32;34179;-70
2022/01/14 09:38:06;;;;;;;18.43;5.97;;;;;;;7.11;53.90;101393.53;5388538;32;36254;-67
2022/01/14 09:41:09;;;;;;;13.20;5.97;;;;;;;6.53;55.42;101400.06;5411795;32;34189;-73
2022/01/14 09:44:17;;;;;;;14.67;5.50;;;;;;;6.48;55.90;101410.53;5400200;32;35092;-66
2022/01/14 09:47:21;;;;;;;14.07;5.60;;;;;;;6.28;56.21;101408.91;5389409;32;44452;-77
2022/01/14 09:50:24;;;;;;;13.07;5.03;;;;;;;6.02;56.93;101411.66;5398281;32;35269;-65
2022/01/14 09:53:27;;;;;;;15.85;5.90;;;;;;;6.38;55.82;101393.19;5413218;32;34808;-69
2022/01/14 09:56:30;;;;;;;13.93;6.25;;;;;;;6.51;55.42;101396.59;5376320;32;33935;-69
2022/01/14 09:59:32;;;;;;;14.97;5.73;;;;;;;6.24;55.84;101392.38;5395150;32;34786;-66
2022/01/14 10:02:40;;;;;;;17.13;6.43;;;;;;;6.33;55.61;101391.50;5401926;32;34119;-70
2022/01/14 10:05:44;;;;;;;16.73;5.97;;;;;;;6.18;56.39;101381.97;5411607;32;36096;-69
2022/01/14 10:08:47;;;;;;;17.90;5.67;;;;;;;6.07;56.44;101371.59;5384625;32;44285;-67
2022/01/14 10:11:58;;;;;;;13.97;5.13;;;;;;;5.84;56.73;101365.59;5403634;32;34242;-70
2022/01/14 10:15:11;;;;;;;16.63;5.70;;;;;;;6.17;55.73;101365.44;5400380;32;34237;-68
2022/01/14 10:18:15;;;;;;;13.40;4.73;;;;;;;6.31;55.35;101356.66;5412533;32;33780;-66
2022/01/14 10:21:18;;;;;;;13.67;5.13;;;;;;;6.26;55.18;101353.25;5412896;32;46991;-66
2022/01/14 10:24:23;;;;;;;14.77;5.12;;;;;;;6.30;55.27;101360.16;5415565;32;34032;-72
2022/01/14 10:27:40;;;;;;;15.97;6.33;;;;;;;6.68;54.06;101336.38;5413837;32;34175;-66
2022/01/14 10:30:45;;;;;;;15.37;4.93;;;;;;;6.26;55.12;101338.44;5410755;32;34656;-65
2022/01/14 10:33:47;;;;;;;14.50;5.83;;;;;;;6.64;53.80;101335.56;5413857;32;44474;-65
2022/01/14 10:36:50;;;;;;;13.97;4.73;;;;;;;6.06;55.11;101335.94;5416245;32;34856;-72
2022/01/14 10:39:53;;;;;;;12.95;4.97;;;;;;;6.17;54.86;101334.13;5401185;32;35532;-75
2022/01/14 10:43:06;;;;;;;11.33;4.70;;;;;;;6.51;53.88;101310.41;5413580;32;34095;-76
2022/01/14 10:46:28;;;;;;;19.73;5.80;;;;;;;6.39;54.31;101308.75;5415359;32;35327;-67
2022/01/14 10:49:32;;;;;;;14.67;5.30;;;;;;;6.30;54.34;101302.72;5413455;32;35575;-70
2022/01/14 10:52:36;;;;;;;15.07;6.20;;;;;;;6.27;54.51;101293.19;5398318;32;33225;-68
2022/01/14 10:55:46;;;;;;;10.50;4.53;;;;;;;7.06;52.46;101302.94;5395997;32;36121;-70
2022/01/14 10:58:51;;;;;;;21.47;5.63;;;;;;;7.13;52.26;101305.50;5406654;32;44689;-79
2022/01/14 11:01:54;;;;;;;10.17;4.77;;;;;;;7.86;49.79;101287.19;5399189;32;34997;-72
2022/01/14 11:05:17;;;;;;;13.20;5.53;;;;;;;7.34;51.47;101313.09;5414483;32;34618;-69
2022/01/14 11:08:34;;;;;;;14.40;5.87;;;;;;;7.33;51.86;101301.78;5395084;32;44359;-71
2022/01/14 11:11:47;;;;;;;17.33;5.47;;;;;;;7.37;51.42;101301.75;5414699;32;34336;-79
2022/01/14 11:14:49;;;;;;;17.50;6.18;;;;;;;7.59;51.14;101300.59;5413485;32;44470;-67
2022/01/14 11:17:55;;;;;;;17.37;7.37;;;;;;;8.26;49.93;101293.59;5410435;32;34187;-72
2022/01/14 11:24:27;;;;;;;14.63;6.50;;;;;;;7.62;51.96;101292.72;5408573;32;44373;-75
2022/01/14 11:27:31;;;;;;;20.60;8.97;;;;;;;7.27;53.08;101285.28;5402595;32;33970;-76
2022/01/14 11:30:37;;;;;;;14.30;5.80;;;;;;;7.17;53.50;101283.66;5412708;32;33799;-78
2022/01/14 11:33:43;;;;;;;13.40;5.30;;;;;;;7.19;53.01;101260.97;5380797;32;34775;-76
2022/01/14 11:36:57;;;;;;;13.37;5.63;;;;;;;7.92;51.22;101253.94;5387944;32;35871;-68
2022/01/14 11:40:01;;;;;;;;;;;;;;;7.27;52.79;101260.00;5410371;32;33958;-70
2022/01/14 11:43:04;;;;;;;15.93;6.00;;;;;;;8.23;50.56;101238.62;5388241;32;33162;-71
2022/01/14 11:46:10;;;;;;;14.63;5.30;;;;;;;8.49;49.52;101225.12;5393642;32;35203;-69
2022/01/14 11:49:32;;;;;;;11.87;6.00;;;;;;;8.32;50.03;101223.66;5411985;32;34394;-71
2022/01/14 11:52:41;;;;;;;14.67;5.90;;;;;;;7.72;51.67;101234.13;5406956;32;34081;-70
2022/01/14 11:55:43;;;;;;;16.73;6.13;;;;;;;8.24;50.61;101224.63;5372231;32;34630;-72
2022/01/14 11:58:46;;;;;;;14.97;6.20;;;;;;;9.64;47.12;101210.63;5407479;32;42681;-69
2022/01/14 12:01:55;;;;;;;16.70;6.33;;;;;;;9.16;48.63;101219.53;5397157;32;44019;-75
2022/01/14 12:05:08;;;;;;;16.17;5.60;;;;;;;8.21;50.42;101224.72;5412304;32;34527;-71
2022/01/14 12:08:12;;;;;;;13.83;7.23;;;;;;;8.47;49.94;101211.22;5392852;32;34052;-71
2022/01/14 12:11:21;;;;;;;11.67;5.20;;;;;;;8.78;48.92;101199.28;5396878;32;44228;-71
2022/01/14 12:14:36;;;;;;;14.77;5.55;;;;;;;9.42;47.20;101197.13;5403382;32;35189;-70
2022/01/14 12:17:42;;;;;;;13.67;5.20;;;;;;;9.17;47.90;101197.62;5396078;32;34012;-72
2022/01/14 12:20:48;;;;;;;12.03;4.93;;;;;;;10.25;45.52;101198.75;5413309;32;33976;-71
2022/01/14 12:23:51;;;;;;;11.43;5.23;;;;;;;11.10;43.29;101183.31;5403082;32;44335;-71
2022/01/14 12:27:08;;;;;;;10.77;5.03;;;;;;;12.60;40.37;101167.16;5397953;32;34062;-71
2022/01/14 12:30:31;;;;;;;14.00;6.33;;;;;;;12.31;40.07;101176.94;5408497;32;36127;-75
2022/01/14 12:33:41;;;;;;;12.73;5.57;;;;;;;11.33;42.15;101176.50;5407233;32;34850;-70
2022/01/14 12:36:44;;;;;;;11.20;4.80;;;;;;;10.57;43.65;101180.38;5414049;32;35800;-72
2022/01/14 12:39:48;;;;;;;12.57;4.77;;;;;;;10.27;44.20;101192.53;5414680;32;44349;-72
2022/01/14 12:43:04;;;;;;;12.43;5.27;;;;;;;10.82;42.93;101201.62;5393347;32;35134;-73
2022/01/14 12:46:24;;;;;;;12.33;5.07;;;;;;;11.22;42.12;101192.63;5416117;32;34222;-71
2022/01/14 12:49:34;;;;;;;10.73;4.80;;;;;;;9.19;45.94;101197.59;5394614;32;34214;-71
2022/01/14 12:52:47;;;;;;;13.70;4.57;;;;;;;9.34;45.83;101199.03;5397300;32;34873;-72
2022/01/14 12:55:49;;;;;;;11.77;5.55;;;;;;;8.89;46.63;101209.59;5393547;32;46646;-72
2022/01/14 12:59:05;;;;;;;12.73;4.57;;;;;;;9.70;44.96;101164.12;5402507;32;35636;-71
2022/01/14 13:02:08;;;;;;;11.60;4.40;;;;;;;10.37;43.67;101187.94;5412782;32;35050;-73
2022/01/14 13:05:15;;;;;;;14.23;5.23;;;;;;;8.59;47.82;101190.91;5403529;32;35359;-71
2022/01/14 13:08:28;;;;;;;13.53;5.40;;;;;;;8.26;48.64;101180.97;5401382;32;44617;-73
2022/01/14 13:11:30;;;;;;;13.43;5.00;;;;;;;8.50;48.72;101179.69;5414556;32;34541;-71
2022/01/14 13:14:41;;;;;;;31.70;9.67;;;;;;;8.67;48.13;101177.66;5412838;32;34020;-70
2022/01/14 13:18:03;;;;;;;11.23;4.67;;;;;;;9.44;46.04;101158.59;5416183;32;34289;-72
2022/01/14 13:21:05;;;;;;;14.90;5.20;;;;;;;9.54;45.57;101162.75;5395093;32;34302;-71
2022/01/14 13:24:20;;;;;;;11.97;4.77;;;;;;;9.83;45.62;101166.47;5412366;32;34673;-70
2022/01/14 13:27:30;;;;;;;12.47;4.87;;;;;;;9.89;44.64;101171.56;5410683;32;44454;-70
2022/01/14 13:30:37;;;;;;;11.00;4.70;;;;;;;9.53;45.87;101165.37;5412866;32;34917;-72
2022/01/14 13:33:40;;;;;;;13.10;5.20;;;;;;;9.28;46.58;101155.47;5417686;32;34183;-71
2022/01/14 13:36:42;;;;;;;16.05;4.80;;;;;;;9.08;47.27;101153.25;5386888;32;35512;-71
2022/01/14 13:39:45;;;;;;;10.90;4.20;;;;;;;9.08;47.29;101147.12;5395567;32;34068;-71
2022/01/14 13:43:07;;;;;;;16.43;5.10;;;;;;;8.63;48.84;101155.00;5397446;32;46307;-69
2022/01/14 13:46:19;;;;;;;15.10;5.07;;;;;;;8.84;48.18;101145.87;5405490;32;34931;-70
2022/01/14 13:49:21;;;;;;;15.30;5.60;;;;;;;8.60;48.71;101148.06;5417075;32;46028;-72
2022/01/14 13:52:30;;;;;;;9.47;4.30;;;;;;;8.19;50.07;101143.56;5408976;32;34015;-71
2022/01/14 13:55:35;;;;;;;12.57;4.63;;;;;;;9.04;47.96;101140.22;5392884;32;34691;-70
2022/01/14 13:58:44;;;;;;;13.53;5.57;;;;;;;8.39;49.74;101136.25;5386648;32;31656;-70
2022/01/14 14:01:58;;;;;;;11.53;4.73;;;;;;;8.29;49.86;101141.63;5407655;32;45903;-71
2022/01/14 14:05:00;;;;;;;11.57;4.75;;;;;;;9.38;47.36;101145.63;5416878;32;35242;-70
2022/01/14 14:08:14;;;;;;;11.70;5.10;;;;;;;10.31;45.22;101153.94;5393080;32;33781;-72
2022/01/14 14:18:07;;;;;;;18.50;5.80;;;;;;;12.53;39.02;101141.91;5403337;32;33310;-71
2022/01/14 14:21:15;;;;;;;22.90;5.68;;;;;;;10.61;42.82;101148.75;5403159;32;34615;-73
2022/01/14 14:24:17;;;;;;;14.60;5.40;;;;;;;10.68;43.69;101147.66;5412954;32;44318;-71
2022/01/14 14:27:19;;;;;;;12.53;5.77;;;;;;;9.61;45.82;101158.22;5400470;32;34578;-72
2022/01/14 14:30:23;;;;;;;11.40;5.07;;;;;;;9.83;45.09;101151.56;5398577;32;34783;-71
2022/01/14 14:33:25;;;;;;;15.73;5.68;;;;;;;9.26;46.63;101140.62;5397726;32;34296;-70
2022/01/14 14:36:28;;;;;;;14.90;6.53;;;;;;;8.77;48.29;101142.53;5405765;32;33988;-71
2022/01/14 14:39:30;;;;;;;13.35;5.22;;;;;;;8.02;50.42;101145.59;5414215;32;36174;-72
2022/01/14 14:42:32;;;;;;;13.20;5.07;;;;;;;7.85;51.25;101151.09;5390068;32;34886;-69
2022/01/14 14:45:34;;;;;;;10.90;4.83;;;;;;;8.00;50.67;101148.25;5412624;32;35217;-73
2022/01/14 14:48:37;;;;;;;12.37;4.80;;;;;;;8.55;49.50;101144.66;5417391;32;34031;-71